sensor_id;sensor_type;location;lat;lon;timestamp;P1;durP1;ratioP1;P2;durP2;ratioP2
66626;SDS011;53498;50.422;14.912;2023-11-19T00:00:25;14.15;;;8.95;;
66626;SDS011;53498;50.422;14.912;2023-11-19T00:03:11;13.00;;;7.70;;
66626;SDS011;53498;50.422;14.912;2023-11-19T00:05:39;17.67;;;9.73;;
66626;SDS011;53498;50.422;14.912;2023-11-19T00:08:04;16.85;;;10.32;;
66626;SDS011;53498;50.422;14.912;2023-11-19T00:10:31;16.95;;;9.45;;
66626;SDS011;53498;50.422;14.912;2023-11-19T00:12:57;13.63;;;9.02;;
66626;SDS011;53498;50.422;14.912;2023-11-19T00:15:23;14.90;;;9.73;;
66626;SDS011;53498;50.422;14.912;2023-11-19T00:17:49;13.82;;;8.73;;
66626;SDS011;53498;50.422;14.912;2023-11-19T00:20:15;15.07;;;9.23;;
66626;SDS011;53498;50.422;14.912;2023-11-19T00:22:44;12.70;;;7.75;;
66626;SDS011;53498;50.422;14.912;2023-11-19T00:25:13;14.23;;;8.32;;
66626;SDS011;53498;50.422;14.912;2023-11-19T00:27:39;16.40;;;7.85;;
66626;SDS011;53498;50.422;14.912;2023-11-19T00:30:05;15.60;;;9.65;;
66626;SDS011;53498;50.422;14.912;2023-11-19T00:32:32;13.63;;;9.13;;
66626;SDS011;53498;50.422;14.912;2023-11-19T00:34:58;16.88;;;9.52;;
66626;SDS011;53498;50.422;14.912;2023-11-19T00:37:26;11.55;;;8.27;;
66626;SDS011;53498;50.422;14.912;2023-11-19T00:39:53;13.48;;;8.43;;
66626;SDS011;53498;50.422;14.912;2023-11-19T00:42:19;16.13;;;9.23;;
66626;SDS011;53498;50.422;14.912;2023-11-19T00:44:44;14.77;;;8.25;;
66626;SDS011;53498;50.422;14.912;2023-11-19T00:47:11;12.23;;;8.43;;
66626;SDS011;53498;50.422;14.912;2023-11-19T00:49:37;15.38;;;8.93;;
66626;SDS011;53498;50.422;14.912;2023-11-19T00:52:02;14.07;;;9.20;;
66626;SDS011;53498;50.422;14.912;2023-11-19T00:54:28;14.77;;;9.38;;
66626;SDS011;53498;50.422;14.912;2023-11-19T00:56:54;13.63;;;8.75;;
66626;SDS011;53498;50.422;14.912;2023-11-19T00:59:20;14.23;;;8.32;;
66626;SDS011;53498;50.422;14.912;2023-11-19T01:01:46;15.43;;;9.10;;
66626;SDS011;53498;50.422;14.912;2023-11-19T01:04:13;21.48;;;11.52;;
66626;SDS011;53498;50.422;14.912;2023-11-19T01:06:39;18.95;;;10.43;;
66626;SDS011;53498;50.422;14.912;2023-11-19T01:09:05;18.38;;;9.98;;
66626;SDS011;53498;50.422;14.912;2023-11-19T01:11:31;16.55;;;9.15;;
66626;SDS011;53498;50.422;14.912;2023-11-19T01:13:57;17.70;;;10.00;;
66626;SDS011;53498;50.422;14.912;2023-11-19T01:16:22;12.77;;;8.88;;
66626;SDS011;53498;50.422;14.912;2023-11-19T01:18:48;12.35;;;9.00;;
66626;SDS011;53498;50.422;14.912;2023-11-19T01:21:14;17.20;;;9.43;;
66626;SDS011;53498;50.422;14.912;2023-11-19T01:23:41;17.35;;;9.32;;
66626;SDS011;53498;50.422;14.912;2023-11-19T01:26:10;17.60;;;8.60;;
66626;SDS011;53498;50.422;14.912;2023-11-19T01:28:36;15.15;;;9.73;;
66626;SDS011;53498;50.422;14.912;2023-11-19T01:31:01;14.10;;;8.40;;
66626;SDS011;53498;50.422;14.912;2023-11-19T01:33:28;16.88;;;9.77;;
66626;SDS011;53498;50.422;14.912;2023-11-19T01:35:55;18.30;;;9.70;;
66626;SDS011;53498;50.422;14.912;2023-11-19T01:38:21;17.23;;;10.50;;
66626;SDS011;53498;50.422;14.912;2023-11-19T01:40:47;18.55;;;9.98;;
66626;SDS011;53498;50.422;14.912;2023-11-19T01:43:19;17.80;;;9.27;;
66626;SDS011;53498;50.422;14.912;2023-11-19T01:45:56;16.48;;;9.25;;
66626;SDS011;53498;50.422;14.912;2023-11-19T01:48:22;17.15;;;8.88;;
66626;SDS011;53498;50.422;14.912;2023-11-19T01:50:47;16.40;;;9.23;;
66626;SDS011;53498;50.422;14.912;2023-11-19T01:53:13;16.55;;;9.07;;
66626;SDS011;53498;50.422;14.912;2023-11-19T01:55:41;18.60;;;9.18;;
66626;SDS011;53498;50.422;14.912;2023-11-19T01:58:07;15.48;;;8.88;;
66626;SDS011;53498;50.422;14.912;2023-11-19T02:00:32;19.08;;;10.25;;
66626;SDS011;53498;50.422;14.912;2023-11-19T02:02:58;17.88;;;10.52;;
66626;SDS011;53498;50.422;14.912;2023-11-19T02:05:24;18.42;;;9.88;;
66626;SDS011;53498;50.422;14.912;2023-11-19T02:07:50;17.05;;;9.55;;
66626;SDS011;53498;50.422;14.912;2023-11-19T02:10:16;17.40;;;9.70;;
66626;SDS011;53498;50.422;14.912;2023-11-19T02:12:44;13.02;;;7.97;;
66626;SDS011;53498;50.422;14.912;2023-11-19T02:15:11;17.67;;;9.85;;
66626;SDS011;53498;50.422;14.912;2023-11-19T02:17:37;18.00;;;9.25;;
66626;SDS011;53498;50.422;14.912;2023-11-19T02:20:06;18.35;;;10.15;;
66626;SDS011;53498;50.422;14.912;2023-11-19T02:22:37;15.70;;;9.20;;
66626;SDS011;53498;50.422;14.912;2023-11-19T02:25:04;14.93;;;9.80;;
66626;SDS011;53498;50.422;14.912;2023-11-19T02:27:58;17.05;;;11.05;;
66626;SDS011;53498;50.422;14.912;2023-11-19T02:30:25;17.58;;;10.18;;
66626;SDS011;53498;50.422;14.912;2023-11-19T02:32:52;16.13;;;9.88;;
66626;SDS011;53498;50.422;14.912;2023-11-19T02:35:19;17.52;;;9.68;;
66626;SDS011;53498;50.422;14.912;2023-11-19T02:37:47;17.13;;;9.55;;
66626;SDS011;53498;50.422;14.912;2023-11-19T02:40:13;16.85;;;8.93;;
66626;SDS011;53498;50.422;14.912;2023-11-19T02:42:38;16.67;;;9.82;;
66626;SDS011;53498;50.422;14.912;2023-11-19T02:45:04;17.15;;;9.68;;
66626;SDS011;53498;50.422;14.912;2023-11-19T02:47:33;14.50;;;8.98;;
66626;SDS011;53498;50.422;14.912;2023-11-19T02:49:59;18.85;;;11.43;;
66626;SDS011;53498;50.422;14.912;2023-11-19T02:52:25;16.17;;;9.32;;
66626;SDS011;53498;50.422;14.912;2023-11-19T02:54:50;16.90;;;8.80;;
66626;SDS011;53498;50.422;14.912;2023-11-19T02:57:16;16.98;;;8.93;;
66626;SDS011;53498;50.422;14.912;2023-11-19T02:59:44;14.23;;;9.18;;
66626;SDS011;53498;50.422;14.912;2023-11-19T03:02:10;14.65;;;9.80;;
66626;SDS011;53498;50.422;14.912;2023-11-19T03:04:39;14.35;;;10.18;;
66626;SDS011;53498;50.422;14.912;2023-11-19T03:07:06;16.40;;;10.18;;
66626;SDS011;53498;50.422;14.912;2023-11-19T03:09:32;18.85;;;9.82;;
66626;SDS011;53498;50.422;14.912;2023-11-19T03:12:00;14.50;;;8.35;;
66626;SDS011;53498;50.422;14.912;2023-11-19T03:14:25;13.02;;;9.07;;
66626;SDS011;53498;50.422;14.912;2023-11-19T03:16:51;19.83;;;9.40;;
66626;SDS011;53498;50.422;14.912;2023-11-19T03:19:17;17.45;;;9.18;;
66626;SDS011;53498;50.422;14.912;2023-11-19T03:21:42;14.65;;;8.50;;
66626;SDS011;53498;50.422;14.912;2023-11-19T03:24:10;16.88;;;9.48;;
66626;SDS011;53498;50.422;14.912;2023-11-19T03:26:35;15.55;;;9.30;;
66626;SDS011;53498;50.422;14.912;2023-11-19T03:29:02;13.85;;;8.70;;
66626;SDS011;53498;50.422;14.912;2023-11-19T03:31:28;12.80;;;7.93;;
66626;SDS011;53498;50.422;14.912;2023-11-19T03:33:54;15.75;;;7.22;;
66626;SDS011;53498;50.422;14.912;2023-11-19T03:36:19;13.35;;;8.10;;
66626;SDS011;53498;50.422;14.912;2023-11-19T03:38:45;13.25;;;7.22;;
66626;SDS011;53498;50.422;14.912;2023-11-19T03:41:13;13.77;;;8.02;;
66626;SDS011;53498;50.422;14.912;2023-11-19T03:43:40;14.80;;;8.13;;
66626;SDS011;53498;50.422;14.912;2023-11-19T03:46:21;15.13;;;8.50;;
66626;SDS011;53498;50.422;14.912;2023-11-19T03:48:47;17.48;;;9.50;;
66626;SDS011;53498;50.422;14.912;2023-11-19T03:51:14;12.85;;;8.27;;
66626;SDS011;53498;50.422;14.912;2023-11-19T03:53:49;15.70;;;9.13;;
66626;SDS011;53498;50.422;14.912;2023-11-19T03:56:15;13.45;;;8.02;;
66626;SDS011;53498;50.422;14.912;2023-11-19T03:58:40;15.20;;;9.40;;
66626;SDS011;53498;50.422;14.912;2023-11-19T04:01:10;15.20;;;8.43;;
66626;SDS011;53498;50.422;14.912;2023-11-19T04:03:38;16.65;;;7.88;;
66626;SDS011;53498;50.422;14.912;2023-11-19T04:06:04;15.38;;;8.20;;
66626;SDS011;53498;50.422;14.912;2023-11-19T04:08:29;14.63;;;8.13;;
66626;SDS011;53498;50.422;14.912;2023-11-19T04:10:55;14.90;;;9.23;;
66626;SDS011;53498;50.422;14.912;2023-11-19T04:13:21;18.00;;;8.40;;
66626;SDS011;53498;50.422;14.912;2023-11-19T04:15:49;14.35;;;7.53;;
66626;SDS011;53498;50.422;14.912;2023-11-19T04:18:15;14.07;;;8.45;;
66626;SDS011;53498;50.422;14.912;2023-11-19T04:20:41;15.38;;;9.32;;
66626;SDS011;53498;50.422;14.912;2023-11-19T04:23:08;13.27;;;7.68;;
66626;SDS011;53498;50.422;14.912;2023-11-19T04:25:35;13.13;;;7.85;;
66626;SDS011;53498;50.422;14.912;2023-11-19T04:28:01;13.43;;;8.13;;
66626;SDS011;53498;50.422;14.912;2023-11-19T04:30:27;15.25;;;9.02;;
66626;SDS011;53498;50.422;14.912;2023-11-19T04:32:53;16.38;;;8.32;;
66626;SDS011;53498;50.422;14.912;2023-11-19T04:35:19;11.70;;;6.72;;
66626;SDS011;53498;50.422;14.912;2023-11-19T04:37:44;12.85;;;7.70;;
66626;SDS011;53498;50.422;14.912;2023-11-19T04:40:10;12.07;;;7.32;;
66626;SDS011;53498;50.422;14.912;2023-11-19T04:42:37;14.75;;;8.73;;
66626;SDS011;53498;50.422;14.912;2023-11-19T04:45:06;15.50;;;8.00;;
66626;SDS011;53498;50.422;14.912;2023-11-19T04:47:35;15.38;;;9.15;;
66626;SDS011;53498;50.422;14.912;2023-11-19T04:50:02;13.40;;;7.57;;
66626;SDS011;53498;50.422;14.912;2023-11-19T04:52:28;13.60;;;7.97;;
66626;SDS011;53498;50.422;14.912;2023-11-19T04:54:54;12.35;;;7.60;;
66626;SDS011;53498;50.422;14.912;2023-11-19T04:57:20;9.48;;;6.38;;
66626;SDS011;53498;50.422;14.912;2023-11-19T04:59:45;13.82;;;7.75;;
66626;SDS011;53498;50.422;14.912;2023-11-19T05:02:11;12.60;;;8.02;;
66626;SDS011;53498;50.422;14.912;2023-11-19T05:04:36;11.93;;;6.63;;
66626;SDS011;53498;50.422;14.912;2023-11-19T05:07:05;14.88;;;7.35;;
66626;SDS011;53498;50.422;14.912;2023-11-19T05:09:31;12.75;;;7.95;;
66626;SDS011;53498;50.422;14.912;2023-11-19T05:11:57;13.85;;;7.22;;
66626;SDS011;53498;50.422;14.912;2023-11-19T05:14:22;12.63;;;7.22;;
66626;SDS011;53498;50.422;14.912;2023-11-19T05:16:49;10.30;;;6.47;;
66626;SDS011;53498;50.422;14.912;2023-11-19T05:19:15;13.23;;;7.15;;
66626;SDS011;53498;50.422;14.912;2023-11-19T05:21:44;11.27;;;7.50;;
66626;SDS011;53498;50.422;14.912;2023-11-19T05:24:09;12.65;;;6.80;;
66626;SDS011;53498;50.422;14.912;2023-11-19T05:26:37;11.80;;;7.22;;
66626;SDS011;53498;50.422;14.912;2023-11-19T05:29:03;10.63;;;7.28;;
66626;SDS011;53498;50.422;14.912;2023-11-19T05:31:30;12.30;;;7.38;;
66626;SDS011;53498;50.422;14.912;2023-11-19T05:34:01;12.13;;;6.55;;
66626;SDS011;53498;50.422;14.912;2023-11-19T05:36:27;11.32;;;6.63;;
66626;SDS011;53498;50.422;14.912;2023-11-19T05:38:54;9.88;;;6.07;;
66626;SDS011;53498;50.422;14.912;2023-11-19T05:41:20;9.52;;;5.75;;
66626;SDS011;53498;50.422;14.912;2023-11-19T05:43:45;11.80;;;6.38;;
66626;SDS011;53498;50.422;14.912;2023-11-19T05:46:11;10.82;;;5.88;;
66626;SDS011;53498;50.422;14.912;2023-11-19T05:48:38;11.85;;;6.80;;
66626;SDS011;53498;50.422;14.912;2023-11-19T05:51:04;8.48;;;5.75;;
66626;SDS011;53498;50.422;14.912;2023-11-19T05:53:31;11.38;;;6.68;;
66626;SDS011;53498;50.422;14.912;2023-11-19T05:55:57;8.95;;;5.95;;
66626;SDS011;53498;50.422;14.912;2023-11-19T05:58:23;12.80;;;7.38;;
66626;SDS011;53498;50.422;14.912;2023-11-19T06:00:57;9.70;;;6.55;;
66626;SDS011;53498;50.422;14.912;2023-11-19T06:03:23;12.40;;;5.93;;
66626;SDS011;53498;50.422;14.912;2023-11-19T06:05:49;11.38;;;5.72;;
66626;SDS011;53498;50.422;14.912;2023-11-19T06:08:15;10.02;;;5.97;;
66626;SDS011;53498;50.422;14.912;2023-11-19T06:10:42;11.35;;;6.65;;
66626;SDS011;53498;50.422;14.912;2023-11-19T06:13:08;11.93;;;6.22;;
66626;SDS011;53498;50.422;14.912;2023-11-19T06:15:36;9.93;;;5.65;;
66626;SDS011;53498;50.422;14.912;2023-11-19T06:18:02;9.48;;;4.50;;
66626;SDS011;53498;50.422;14.912;2023-11-19T06:20:29;11.52;;;6.28;;
66626;SDS011;53498;50.422;14.912;2023-11-19T06:22:55;10.68;;;6.63;;
66626;SDS011;53498;50.422;14.912;2023-11-19T06:25:22;9.70;;;6.05;;
66626;SDS011;53498;50.422;14.912;2023-11-19T06:27:49;11.43;;;5.97;;
66626;SDS011;53498;50.422;14.912;2023-11-19T06:30:18;9.50;;;5.60;;
66626;SDS011;53498;50.422;14.912;2023-11-19T06:32:44;9.05;;;5.78;;
66626;SDS011;53498;50.422;14.912;2023-11-19T06:35:09;10.82;;;5.25;;
66626;SDS011;53498;50.422;14.912;2023-11-19T06:37:35;11.15;;;5.47;;
66626;SDS011;53498;50.422;14.912;2023-11-19T06:40:05;11.23;;;6.30;;
66626;SDS011;53498;50.422;14.912;2023-11-19T06:42:31;10.32;;;5.47;;
66626;SDS011;53498;50.422;14.912;2023-11-19T06:44:58;10.48;;;6.40;;
66626;SDS011;53498;50.422;14.912;2023-11-19T06:47:26;10.98;;;5.68;;
66626;SDS011;53498;50.422;14.912;2023-11-19T06:49:53;9.90;;;5.55;;
66626;SDS011;53498;50.422;14.912;2023-11-19T06:52:19;10.43;;;6.82;;
66626;SDS011;53498;50.422;14.912;2023-11-19T06:54:45;11.27;;;6.35;;
66626;SDS011;53498;50.422;14.912;2023-11-19T06:57:13;8.60;;;5.32;;
66626;SDS011;53498;50.422;14.912;2023-11-19T06:59:39;9.65;;;6.10;;
66626;SDS011;53498;50.422;14.912;2023-11-19T07:02:05;12.93;;;8.02;;
66626;SDS011;53498;50.422;14.912;2023-11-19T07:04:31;10.27;;;6.05;;
66626;SDS011;53498;50.422;14.912;2023-11-19T07:06:58;12.35;;;7.25;;
66626;SDS011;53498;50.422;14.912;2023-11-19T07:09:25;13.23;;;6.93;;
66626;SDS011;53498;50.422;14.912;2023-11-19T07:11:51;10.40;;;6.20;;
66626;SDS011;53498;50.422;14.912;2023-11-19T07:14:17;8.23;;;5.55;;
66626;SDS011;53498;50.422;14.912;2023-11-19T07:16:43;11.85;;;6.30;;
66626;SDS011;53498;50.422;14.912;2023-11-19T07:19:09;12.85;;;6.97;;
66626;SDS011;53498;50.422;14.912;2023-11-19T07:21:35;10.27;;;6.00;;
66626;SDS011;53498;50.422;14.912;2023-11-19T07:24:04;11.57;;;6.78;;
66626;SDS011;53498;50.422;14.912;2023-11-19T07:26:31;13.63;;;6.10;;
66626;SDS011;53498;50.422;14.912;2023-11-19T07:28:56;11.43;;;6.78;;
66626;SDS011;53498;50.422;14.912;2023-11-19T07:31:23;10.93;;;6.45;;
66626;SDS011;53498;50.422;14.912;2023-11-19T07:33:49;11.45;;;6.10;;
66626;SDS011;53498;50.422;14.912;2023-11-19T07:36:14;10.98;;;6.00;;
66626;SDS011;53498;50.422;14.912;2023-11-19T07:38:40;10.20;;;5.07;;
66626;SDS011;53498;50.422;14.912;2023-11-19T07:41:06;12.15;;;6.22;;
66626;SDS011;53498;50.422;14.912;2023-11-19T07:43:32;10.63;;;5.68;;
66626;SDS011;53498;50.422;14.912;2023-11-19T07:45:58;15.20;;;6.72;;
66626;SDS011;53498;50.422;14.912;2023-11-19T07:48:24;11.75;;;6.38;;
66626;SDS011;53498;50.422;14.912;2023-11-19T07:50:51;9.35;;;5.78;;
66626;SDS011;53498;50.422;14.912;2023-11-19T07:53:17;11.48;;;6.35;;
66626;SDS011;53498;50.422;14.912;2023-11-19T07:55:43;9.88;;;5.57;;
66626;SDS011;53498;50.422;14.912;2023-11-19T07:58:10;9.57;;;5.80;;
66626;SDS011;53498;50.422;14.912;2023-11-19T08:00:36;10.15;;;6.57;;
66626;SDS011;53498;50.422;14.912;2023-11-19T08:03:02;8.60;;;5.38;;
66626;SDS011;53498;50.422;14.912;2023-11-19T08:05:28;10.30;;;5.75;;
66626;SDS011;53498;50.422;14.912;2023-11-19T08:07:54;11.07;;;6.18;;
66626;SDS011;53498;50.422;14.912;2023-11-19T08:10:19;8.88;;;5.15;;
66626;SDS011;53498;50.422;14.912;2023-11-19T08:12:45;8.75;;;5.40;;
66626;SDS011;53498;50.422;14.912;2023-11-19T08:15:11;9.93;;;6.78;;
66626;SDS011;53498;50.422;14.912;2023-11-19T08:17:36;10.13;;;6.20;;
66626;SDS011;53498;50.422;14.912;2023-11-19T08:20:03;9.77;;;6.43;;
66626;SDS011;53498;50.422;14.912;2023-11-19T08:22:30;10.05;;;6.30;;
66626;SDS011;53498;50.422;14.912;2023-11-19T08:24:56;11.73;;;6.05;;
66626;SDS011;53498;50.422;14.912;2023-11-19T08:27:22;10.63;;;7.00;;
66626;SDS011;53498;50.422;14.912;2023-11-19T08:29:53;9.23;;;5.65;;
66626;SDS011;53498;50.422;14.912;2023-11-19T08:32:22;8.38;;;5.90;;
66626;SDS011;53498;50.422;14.912;2023-11-19T08:34:48;10.73;;;7.22;;
66626;SDS011;53498;50.422;14.912;2023-11-19T08:37:14;9.35;;;5.82;;
66626;SDS011;53498;50.422;14.912;2023-11-19T08:39:40;11.05;;;6.13;;
66626;SDS011;53498;50.422;14.912;2023-11-19T08:42:07;8.65;;;6.15;;
66626;SDS011;53498;50.422;14.912;2023-11-19T08:44:33;8.82;;;5.53;;
66626;SDS011;53498;50.422;14.912;2023-11-19T08:46:58;9.13;;;5.50;;
66626;SDS011;53498;50.422;14.912;2023-11-19T08:49:24;8.05;;;5.97;;
66626;SDS011;53498;50.422;14.912;2023-11-19T08:51:49;10.35;;;7.40;;
66626;SDS011;53498;50.422;14.912;2023-11-19T08:54:15;11.77;;;6.05;;
66626;SDS011;53498;50.422;14.912;2023-11-19T08:56:40;8.68;;;5.53;;
66626;SDS011;53498;50.422;14.912;2023-11-19T08:59:06;10.52;;;6.53;;
66626;SDS011;53498;50.422;14.912;2023-11-19T09:01:31;9.35;;;5.88;;
66626;SDS011;53498;50.422;14.912;2023-11-19T09:03:57;10.93;;;6.35;;
66626;SDS011;53498;50.422;14.912;2023-11-19T09:06:23;8.43;;;5.70;;
66626;SDS011;53498;50.422;14.912;2023-11-19T09:08:48;9.25;;;6.57;;
66626;SDS011;53498;50.422;14.912;2023-11-19T09:11:14;9.10;;;6.40;;
66626;SDS011;53498;50.422;14.912;2023-11-19T09:13:39;10.25;;;6.30;;
66626;SDS011;53498;50.422;14.912;2023-11-19T09:16:05;8.88;;;5.97;;
66626;SDS011;53498;50.422;14.912;2023-11-19T09:18:31;9.85;;;5.95;;
66626;SDS011;53498;50.422;14.912;2023-11-19T09:20:58;10.23;;;6.28;;
66626;SDS011;53498;50.422;14.912;2023-11-19T09:23:24;8.10;;;6.28;;
66626;SDS011;53498;50.422;14.912;2023-11-19T09:25:54;9.02;;;5.35;;
66626;SDS011;53498;50.422;14.912;2023-11-19T09:28:20;8.32;;;5.10;;
66626;SDS011;53498;50.422;14.912;2023-11-19T09:30:45;9.68;;;6.03;;
66626;SDS011;53498;50.422;14.912;2023-11-19T09:33:11;10.32;;;6.00;;
66626;SDS011;53498;50.422;14.912;2023-11-19T09:35:36;7.07;;;5.25;;
66626;SDS011;53498;50.422;14.912;2023-11-19T09:38:02;7.07;;;5.00;;
66626;SDS011;53498;50.422;14.912;2023-11-19T09:40:30;8.23;;;5.38;;
66626;SDS011;53498;50.422;14.912;2023-11-19T09:42:57;6.70;;;5.47;;
66626;SDS011;53498;50.422;14.912;2023-11-19T09:45:22;8.10;;;6.30;;
66626;SDS011;53498;50.422;14.912;2023-11-19T09:47:53;8.75;;;5.28;;
66626;SDS011;53498;50.422;14.912;2023-11-19T09:50:22;9.48;;;5.93;;
66626;SDS011;53498;50.422;14.912;2023-11-19T09:52:48;7.78;;;5.43;;
66626;SDS011;53498;50.422;14.912;2023-11-19T09:55:14;8.60;;;6.00;;
66626;SDS011;53498;50.422;14.912;2023-11-19T09:57:40;11.02;;;6.20;;
66626;SDS011;53498;50.422;14.912;2023-11-19T10:00:09;8.63;;;5.00;;
66626;SDS011;53498;50.422;14.912;2023-11-19T10:02:37;7.97;;;5.32;;
66626;SDS011;53498;50.422;14.912;2023-11-19T10:05:04;10.25;;;6.22;;
66626;SDS011;53498;50.422;14.912;2023-11-19T10:07:32;10.55;;;6.28;;
66626;SDS011;53498;50.422;14.912;2023-11-19T10:09:59;9.02;;;5.45;;
66626;SDS011;53498;50.422;14.912;2023-11-19T10:12:27;9.18;;;5.68;;
66626;SDS011;53498;50.422;14.912;2023-11-19T10:14:54;8.93;;;5.30;;
66626;SDS011;53498;50.422;14.912;2023-11-19T10:17:22;10.30;;;5.85;;
66626;SDS011;53498;50.422;14.912;2023-11-19T10:19:54;9.52;;;5.20;;
66626;SDS011;53498;50.422;14.912;2023-11-19T10:22:20;8.70;;;5.70;;
66626;SDS011;53498;50.422;14.912;2023-11-19T10:24:47;8.50;;;5.93;;
66626;SDS011;53498;50.422;14.912;2023-11-19T10:27:13;8.07;;;5.55;;
66626;SDS011;53498;50.422;14.912;2023-11-19T10:29:39;7.95;;;5.30;;
66626;SDS011;53498;50.422;14.912;2023-11-19T10:32:05;7.88;;;5.63;;
66626;SDS011;53498;50.422;14.912;2023-11-19T10:34:31;7.85;;;5.25;;
66626;SDS011;53498;50.422;14.912;2023-11-19T10:36:56;9.65;;;6.00;;
66626;SDS011;53498;50.422;14.912;2023-11-19T10:39:22;6.85;;;5.53;;
66626;SDS011;53498;50.422;14.912;2023-11-19T10:41:49;8.57;;;5.40;;
66626;SDS011;53498;50.422;14.912;2023-11-19T10:44:36;5.80;;;4.82;;
66626;SDS011;53498;50.422;14.912;2023-11-19T10:47:01;8.90;;;4.90;;
66626;SDS011;53498;50.422;14.912;2023-11-19T10:49:31;5.22;;;4.00;;
66626;SDS011;53498;50.422;14.912;2023-11-19T10:51:56;6.38;;;4.30;;
66626;SDS011;53498;50.422;14.912;2023-11-19T10:54:24;5.20;;;3.47;;
66626;SDS011;53498;50.422;14.912;2023-11-19T10:56:53;7.90;;;4.43;;
66626;SDS011;53498;50.422;14.912;2023-11-19T10:59:23;5.25;;;3.45;;
66626;SDS011;53498;50.422;14.912;2023-11-19T11:01:53;5.10;;;3.20;;
66626;SDS011;53498;50.422;14.912;2023-11-19T11:04:23;5.50;;;4.63;;
66626;SDS011;53498;50.422;14.912;2023-11-19T11:06:51;6.45;;;4.97;;
66626;SDS011;53498;50.422;14.912;2023-11-19T11:09:19;5.35;;;4.30;;
66626;SDS011;53498;50.422;14.912;2023-11-19T11:11:46;5.28;;;4.25;;
66626;SDS011;53498;50.422;14.912;2023-11-19T11:14:15;5.97;;;4.47;;
66626;SDS011;53498;50.422;14.912;2023-11-19T11:16:43;7.25;;;4.55;;
66626;SDS011;53498;50.422;14.912;2023-11-19T11:19:10;5.88;;;4.25;;
66626;SDS011;53498;50.422;14.912;2023-11-19T11:21:39;8.35;;;5.18;;
66626;SDS011;53498;50.422;14.912;2023-11-19T11:34:31;9.07;;;5.60;;
66626;SDS011;53498;50.422;14.912;2023-11-19T11:40:24;6.95;;;5.40;;
66626;SDS011;53498;50.422;14.912;2023-11-19T11:42:51;8.35;;;6.63;;
66626;SDS011;53498;50.422;14.912;2023-11-19T11:45:18;7.10;;;4.70;;
66626;SDS011;53498;50.422;14.912;2023-11-19T11:50:20;8.77;;;5.50;;
66626;SDS011;53498;50.422;14.912;2023-11-19T11:56:11;9.52;;;5.70;;
66626;SDS011;53498;50.422;14.912;2023-11-19T11:58:19;8.38;;;5.32;;
66626;SDS011;53498;50.422;14.912;2023-11-19T12:00:46;6.55;;;5.60;;
66626;SDS011;53498;50.422;14.912;2023-11-19T12:03:13;7.93;;;5.75;;
66626;SDS011;53498;50.422;14.912;2023-11-19T12:05:43;8.93;;;4.93;;
66626;SDS011;53498;50.422;14.912;2023-11-19T12:08:11;7.63;;;4.88;;
66626;SDS011;53498;50.422;14.912;2023-11-19T12:13:13;7.63;;;5.93;;
66626;SDS011;53498;50.422;14.912;2023-11-19T12:18:23;7.90;;;5.50;;
66626;SDS011;53498;50.422;14.912;2023-11-19T12:20:50;8.23;;;5.20;;
66626;SDS011;53498;50.422;14.912;2023-11-19T12:23:15;7.68;;;5.70;;
66626;SDS011;53498;50.422;14.912;2023-11-19T12:25:41;12.60;;;7.07;;
66626;SDS011;53498;50.422;14.912;2023-11-19T12:28:11;10.45;;;6.20;;
66626;SDS011;53498;50.422;14.912;2023-11-19T12:30:38;9.10;;;6.22;;
66626;SDS011;53498;50.422;14.912;2023-11-19T12:33:10;10.13;;;6.95;;
66626;SDS011;53498;50.422;14.912;2023-11-19T12:35:40;9.75;;;6.22;;
66626;SDS011;53498;50.422;14.912;2023-11-19T12:38:20;12.63;;;6.35;;
66626;SDS011;53498;50.422;14.912;2023-11-19T12:40:46;9.10;;;6.07;;
66626;SDS011;53498;50.422;14.912;2023-11-19T12:43:21;8.48;;;6.35;;
66626;SDS011;53498;50.422;14.912;2023-11-19T12:45:48;11.23;;;6.93;;
66626;SDS011;53498;50.422;14.912;2023-11-19T12:48:13;10.48;;;6.72;;
66626;SDS011;53498;50.422;14.912;2023-11-19T12:53:18;10.68;;;7.15;;
66626;SDS011;53498;50.422;14.912;2023-11-19T12:55:44;10.00;;;6.45;;
66626;SDS011;53498;50.422;14.912;2023-11-19T12:58:10;10.38;;;6.65;;
66626;SDS011;53498;50.422;14.912;2023-11-19T13:00:36;11.80;;;7.68;;
66626;SDS011;53498;50.422;14.912;2023-11-19T13:03:02;12.70;;;7.03;;
66626;SDS011;53498;50.422;14.912;2023-11-19T13:05:32;11.48;;;7.80;;
66626;SDS011;53498;50.422;14.912;2023-11-19T13:07:59;12.00;;;8.10;;
66626;SDS011;53498;50.422;14.912;2023-11-19T13:13:17;10.43;;;7.43;;
66626;SDS011;53498;50.422;14.912;2023-11-19T13:15:43;12.38;;;6.70;;
66626;SDS011;53498;50.422;14.912;2023-11-19T13:18:11;11.85;;;8.32;;
66626;SDS011;53498;50.422;14.912;2023-11-19T13:20:38;14.00;;;7.53;;
66626;SDS011;53498;50.422;14.912;2023-11-19T13:23:05;12.60;;;7.00;;
66626;SDS011;53498;50.422;14.912;2023-11-19T13:25:32;13.48;;;7.88;;
66626;SDS011;53498;50.422;14.912;2023-11-19T13:27:58;11.48;;;6.72;;
66626;SDS011;53498;50.422;14.912;2023-11-19T13:30:25;13.55;;;6.72;;
66626;SDS011;53498;50.422;14.912;2023-11-19T13:32:51;10.40;;;7.47;;
66626;SDS011;53498;50.422;14.912;2023-11-19T13:35:18;10.23;;;6.72;;
66626;SDS011;53498;50.422;14.912;2023-11-19T13:37:44;11.65;;;7.32;;
66626;SDS011;53498;50.422;14.912;2023-11-19T13:40:10;11.55;;;7.05;;
66626;SDS011;53498;50.422;14.912;2023-11-19T13:42:39;12.35;;;6.85;;
66626;SDS011;53498;50.422;14.912;2023-11-19T13:45:07;15.20;;;9.70;;
66626;SDS011;53498;50.422;14.912;2023-11-19T13:47:36;16.42;;;8.45;;
66626;SDS011;53498;50.422;14.912;2023-11-19T13:50:02;13.25;;;8.73;;
66626;SDS011;53498;50.422;14.912;2023-11-19T13:52:31;15.90;;;9.77;;
66626;SDS011;53498;50.422;14.912;2023-11-19T13:54:57;17.10;;;10.30;;
66626;SDS011;53498;50.422;14.912;2023-11-19T13:57:22;18.08;;;10.75;;
66626;SDS011;53498;50.422;14.912;2023-11-19T13:59:48;12.95;;;8.90;;
66626;SDS011;53498;50.422;14.912;2023-11-19T14:02:14;12.68;;;7.30;;
66626;SDS011;53498;50.422;14.912;2023-11-19T14:04:40;15.57;;;9.27;;
66626;SDS011;53498;50.422;14.912;2023-11-19T14:07:06;12.05;;;7.47;;
66626;SDS011;53498;50.422;14.912;2023-11-19T14:09:32;15.00;;;9.68;;
66626;SDS011;53498;50.422;14.912;2023-11-19T14:11:58;12.07;;;7.72;;
66626;SDS011;53498;50.422;14.912;2023-11-19T14:14:23;15.70;;;8.50;;
66626;SDS011;53498;50.422;14.912;2023-11-19T14:16:49;11.88;;;7.22;;
66626;SDS011;53498;50.422;14.912;2023-11-19T14:19:15;11.15;;;7.00;;
66626;SDS011;53498;50.422;14.912;2023-11-19T14:21:40;12.35;;;6.97;;
66626;SDS011;53498;50.422;14.912;2023-11-19T14:24:06;10.38;;;6.45;;
66626;SDS011;53498;50.422;14.912;2023-11-19T14:26:32;9.10;;;6.63;;
66626;SDS011;53498;50.422;14.912;2023-11-19T14:28:57;11.32;;;6.65;;
66626;SDS011;53498;50.422;14.912;2023-11-19T14:31:23;13.40;;;8.23;;
66626;SDS011;53498;50.422;14.912;2023-11-19T14:33:48;10.38;;;7.43;;
66626;SDS011;53498;50.422;14.912;2023-11-19T14:36:14;11.43;;;7.38;;
66626;SDS011;53498;50.422;14.912;2023-11-19T14:38:40;9.95;;;7.10;;
66626;SDS011;53498;50.422;14.912;2023-11-19T14:41:06;9.85;;;6.55;;
66626;SDS011;53498;50.422;14.912;2023-11-19T14:43:31;10.07;;;5.80;;
66626;SDS011;53498;50.422;14.912;2023-11-19T14:45:57;11.25;;;6.95;;
66626;SDS011;53498;50.422;14.912;2023-11-19T14:48:22;11.98;;;7.28;;
66626;SDS011;53498;50.422;14.912;2023-11-19T14:50:48;13.35;;;6.97;;
66626;SDS011;53498;50.422;14.912;2023-11-19T14:53:15;10.95;;;6.30;;